Time;durP1;ratioP1;P1;durP2;ratioP2;P2;SDS_P1;SDS_P2;PMS_P1;PMS_P2;Temp;Humidity;BMP_temperature;BMP_pressure;BME280_temperature;BME280_humidity;BME280_pressure;Samples;Min_cycle;Max_cycle;Signal;HPM_P1;HPM_P2
2021/01/22 00:01:07;;;;;;;5.07;3.20;;;7.60;99.90;;;;;;5012760;28;20210;-86
2021/01/22 00:03:38;;;;;;;5.67;3.70;;;7.60;99.90;;;;;;5015363;28;20270;-86
2021/01/22 00:06:11;;;;;;;4.33;3.40;;;7.60;99.90;;;;;;4995561;28;20204;-87
2021/01/22 00:08:43;;;;;;;5.83;3.40;;;7.60;99.90;;;;;;4994178;28;20238;-86
2021/01/22 00:11:16;;;;;;;4.53;3.40;;;7.60;99.90;;;;;;4977698;28;20206;-87
2021/01/22 00:13:53;;;;;;;7.03;3.77;;;7.50;99.90;;;;;;5004168;28;20210;-85
2021/01/22 00:16:26;;;;;;;5.50;3.27;;;7.50;99.90;;;;;;5014876;28;20212;-87
2021/01/22 00:18:58;;;;;;;7.70;4.40;;;7.50;99.90;;;;;;5014577;28;20186;-88
2021/01/22 00:21:30;;;;;;;6.60;3.93;;;7.40;99.90;;;;;;4995475;28;20194;-86
2021/01/22 00:24:01;;;;;;;4.47;3.17;;;7.40;99.90;;;;;;4994712;28;20182;-88
2021/01/22 00:26:34;;;;;;;3.50;2.97;;;7.30;99.90;;;;;;4995288;28;20262;-86
2021/01/22 00:29:05;;;;;;;6.47;3.40;;;7.30;99.90;;;;;;4984896;28;20239;-86
2021/01/22 00:31:35;;;;;;;5.10;3.07;;;7.30;99.90;;;;;;4981485;28;20230;-87
2021/01/22 00:34:07;;;;;;;3.90;2.73;;;7.30;99.90;;;;;;4985151;28;20220;-88
2021/01/22 00:36:38;;;;;;;8.03;3.57;;;7.20;99.90;;;;;;4988081;28;20209;-88
2021/01/22 00:39:09;;;;;;;4.97;3.00;;;7.20;99.90;;;;;;4982887;28;20210;-87
2021/01/22 00:41:40;;;;;;;7.50;3.73;;;7.30;99.90;;;;;;5004631;28;20218;-88
2021/01/22 00:44:16;;;;;;;5.87;3.23;;;7.20;99.90;;;;;;4984997;28;20290;-88
2021/01/22 00:46:49;;;;;;;7.20;3.80;;;7.20;99.90;;;;;;5001486;28;20205;-88
2021/01/22 00:49:21;;;;;;;6.53;3.40;;;7.20;99.90;;;;;;4995967;28;20234;-88
2021/01/22 00:51:51;;;;;;;7.27;4.43;;;7.10;99.90;;;;;;4998007;28;20199;-88
2021/01/22 00:54:23;;;;;;;7.50;4.20;;;7.00;99.90;;;;;;5000092;28;20206;-88
2021/01/22 00:56:54;;;;;;;7.27;4.00;;;7.10;99.90;;;;;;5008385;28;20206;-87
2021/01/22 00:59:27;;;;;;;7.83;4.07;;;7.00;99.90;;;;;;4985992;28;20227;-86
2021/01/22 01:02:00;;;;;;;9.27;5.03;;;7.00;99.90;;;;;;4987750;28;20218;-87
2021/01/22 01:04:34;;;;;;;8.87;5.73;;;7.00;99.90;;;;;;4970871;28;20222;-88
2021/01/22 01:07:05;;;;;;;8.37;5.27;;;6.90;99.90;;;;;;4989417;28;20216;-87
2021/01/22 01:09:36;;;;;;;8.93;5.93;;;7.00;99.90;;;;;;4995199;28;20232;-88
2021/01/22 01:12:07;;;;;;;7.13;5.30;;;6.90;99.90;;;;;;5009056;28;20303;-89
2021/01/22 01:14:40;;;;;;;7.87;5.77;;;6.90;99.90;;;;;;5006144;28;20206;-87
2021/01/22 01:17:11;;;;;;;6.10;5.03;;;6.90;99.90;;;;;;4992632;28;20214;-88
2021/01/22 01:19:43;;;;;;;9.83;5.93;;;6.80;99.90;;;;;;4992421;28;20213;-87
2021/01/22 01:22:14;;;;;;;10.50;5.80;;;6.80;99.90;;;;;;4994861;28;20206;-88
2021/01/22 01:24:45;;;;;;;8.60;6.27;;;6.70;99.90;;;;;;5013543;28;20286;-88
2021/01/22 01:27:18;;;;;;;7.17;5.83;;;6.70;99.90;;;;;;4995037;28;20210;-87
2021/01/22 01:29:51;;;;;;;8.30;6.10;;;6.60;99.90;;;;;;5010866;28;20620;-87
2021/01/22 01:32:21;;;;;;;9.83;5.87;;;6.60;99.90;;;;;;5010202;28;20211;-87
2021/01/22 01:34:52;;;;;;;9.53;6.40;;;6.60;99.90;;;;;;4986795;28;20290;-88
2021/01/22 01:37:23;;;;;;;11.27;5.80;;;6.50;99.90;;;;;;4986479;28;20221;-88
2021/01/22 01:39:54;;;;;;;6.97;5.27;;;6.50;99.90;;;;;;4986056;28;20211;-88
2021/01/22 01:42:25;;;;;;;7.43;5.10;;;6.50;99.90;;;;;;4994443;28;20218;-86
2021/01/22 01:44:57;;;;;;;6.23;4.87;;;6.50;99.90;;;;;;5005755;28;20206;-86
2021/01/22 01:47:28;;;;;;;6.20;5.07;;;6.40;99.90;;;;;;5009049;28;20746;-87
2021/01/22 01:49:59;;;;;;;5.63;4.60;;;6.40;99.90;;;;;;5010606;28;20281;-87
2021/01/22 01:52:33;;;;;;;6.43;5.13;;;6.30;99.90;;;;;;5010415;28;20230;-87
2021/01/22 01:55:04;;;;;;;5.97;4.50;;;6.30;99.90;;;;;;5033634;23;20230;-88
2021/01/22 01:57:36;;;;;;;8.13;4.73;;;6.30;99.90;;;;;;4995418;28;20206;-87
2021/01/22 02:00:10;;;;;;;5.83;4.40;;;6.20;99.90;;;;;;4998471;28;20187;-88
2021/01/22 02:02:43;;;;;;;10.13;4.73;;;6.20;99.90;;;;;;4976739;28;20199;-88
2021/01/22 02:05:15;;;;;;;7.13;4.83;;;6.20;99.90;;;;;;4990748;28;20290;-88
2021/01/22 02:07:45;;;;;;;7.50;4.77;;;6.20;99.90;;;;;;4970593;28;20236;-88
2021/01/22 02:10:18;;;;;;;6.57;4.20;;;6.20;99.90;;;;;;5001086;28;20210;-88
2021/01/22 02:12:51;;;;;;;5.93;4.70;;;6.20;99.90;;;;;;4994478;28;20198;-86
2021/01/22 02:15:24;;;;;;;7.83;4.90;;;6.20;99.90;;;;;;5006528;28;20197;-89
2021/01/22 02:17:57;;;;;;;6.77;5.30;;;6.20;99.90;;;;;;4982843;28;20262;-88
2021/01/22 02:20:36;;;;;;;7.90;5.07;;;6.20;99.90;;;;;;5011029;28;20272;-89
2021/01/22 02:23:08;;;;;;;8.43;4.60;;;6.20;99.90;;;;;;5001719;28;20208;-89
2021/01/22 02:25:42;;;;;;;7.13;4.73;;;6.20;99.90;;;;;;5004694;28;20226;-88
2021/01/22 02:28:16;;;;;;;6.93;4.93;;;6.20;99.90;;;;;;5011784;28;20230;-89
2021/01/22 02:30:50;;;;;;;7.20;5.10;;;6.20;99.90;;;;;;5011072;28;20202;-89
2021/01/22 02:36:21;;;;;;;10.63;5.10;;;6.10;99.90;;;;;;5016032;28;20207;-89
2021/01/22 02:38:54;;;;;;;6.50;4.70;;;6.20;99.90;;;;;;5011644;28;20214;-89
2021/01/22 02:41:42;;;;;;;7.47;5.00;;;6.20;99.90;;;;;;5009867;28;20214;-88
2021/01/22 02:44:14;;;;;;;7.13;4.63;;;6.20;99.90;;;;;;5011255;28;20214;-88
2021/01/22 02:46:46;;;;;;;7.53;5.37;;;6.20;99.90;;;;;;5007069;28;20208;-88
2021/01/22 02:49:17;;;;;;;9.60;4.90;;;6.20;99.90;;;;;;5009484;28;20250;-89
2021/01/22 02:51:49;;;;;;;7.17;4.80;;;6.30;99.90;;;;;;5010156;28;20574;-89
2021/01/22 02:54:22;;;;;;;8.93;5.07;;;6.20;99.90;;;;;;5012868;28;20220;-89
2021/01/22 02:57:04;;;;;;;8.30;5.30;;;6.20;99.90;;;;;;4995159;28;20207;-89
2021/01/22 02:59:47;;;;;;;7.17;4.93;;;6.20;99.90;;;;;;4994405;28;20214;-89
2021/01/22 03:02:24;;;;;;;9.33;5.10;;;6.20;99.90;;;;;;5003621;28;20292;-89
2021/01/22 03:04:56;;;;;;;7.37;5.53;;;6.20;99.90;;;;;;5013418;28;20213;-89
2021/01/22 03:07:31;;;;;;;6.40;4.70;;;6.20;99.90;;;;;;5014556;28;20226;-88
2021/01/22 03:10:02;;;;;;;9.73;6.17;;;6.20;99.90;;;;;;5012741;28;20205;-88
2021/01/22 03:12:36;;;;;;;6.70;5.13;;;6.20;99.90;;;;;;5013515;28;20218;-89
2021/01/22 03:15:10;;;;;;;9.10;5.47;;;6.20;99.90;;;;;;5014437;28;20227;-89
2021/01/22 03:17:41;;;;;;;8.47;5.10;;;6.20;99.90;;;;;;5002479;28;20261;-89
2021/01/22 03:20:17;;;;;;;11.60;4.70;;;6.10;99.90;;;;;;4993851;28;20206;-89
2021/01/22 03:22:53;;;;;;;9.20;5.80;;;6.10;99.90;;;;;;5013415;28;20274;-89
2021/01/22 03:25:24;;;;;;;9.17;5.40;;;6.10;99.90;;;;;;5013489;28;20197;-89
2021/01/22 03:27:55;;;;;;;8.43;5.17;;;6.10;99.90;;;;;;5003892;28;20770;-89
2021/01/22 03:30:30;;;;;;;9.47;5.17;;;6.20;99.90;;;;;;5008262;28;20217;-88
2021/01/22 03:33:03;;;;;;;6.30;4.77;;;6.10;99.90;;;;;;5008634;28;20298;-90
2021/01/22 03:35:34;;;;;;;7.33;5.17;;;6.10;99.90;;;;;;5008016;28;20273;-89
2021/01/22 03:38:05;;;;;;;6.47;5.33;;;6.10;99.90;;;;;;5012151;28;20213;-89
2021/01/22 03:40:39;;;;;;;11.47;5.73;;;6.10;99.90;;;;;;5002813;28;20217;-89
2021/01/22 03:43:11;;;;;;;8.23;5.20;;;6.20;99.90;;;;;;4998569;28;20219;-89
2021/01/22 03:45:43;;;;;;;7.63;5.20;;;6.20;99.90;;;;;;5001049;28;20202;-89
2021/01/22 03:48:14;;;;;;;6.23;4.70;;;6.20;99.90;;;;;;5013986;28;20290;-89
2021/01/22 03:50:46;;;;;;;9.03;5.23;;;6.20;99.90;;;;;;4996326;28;20234;-89
2021/01/22 03:53:17;;;;;;;9.00;5.23;;;6.20;99.90;;;;;;4996557;28;20219;-89
2021/01/22 03:55:55;;;;;;;7.40;5.43;;;6.20;99.90;;;;;;5005690;28;20225;-89
2021/01/22 03:58:26;;;;;;;7.03;5.13;;;6.10;99.90;;;;;;4988773;28;20214;-88
2021/01/22 04:00:58;;;;;;;7.73;5.13;;;6.10;99.90;;;;;;4990575;28;20359;-89
2021/01/22 04:03:28;;;;;;;6.83;4.93;;;6.10;99.90;;;;;;4997445;28;20266;-89
2021/01/22 04:05:59;;;;;;;7.67;5.50;;;6.10;99.90;;;;;;4987400;28;20270;-90
2021/01/22 04:08:30;;;;;;;8.23;4.67;;;6.10;99.90;;;;;;4988688;28;20289;-89
2021/01/22 04:11:01;;;;;;;9.40;5.43;;;6.10;99.90;;;;;;4997128;28;20214;-89
2021/01/22 04:13:32;;;;;;;8.63;5.90;;;6.10;99.90;;;;;;4997224;28;20202;-89
2021/01/22 04:16:05;;;;;;;9.00;5.27;;;6.10;99.90;;;;;;4989342;28;20209;-89
2021/01/22 04:18:36;;;;;;;10.80;5.67;;;6.00;99.90;;;;;;5008642;28;20546;-89
2021/01/22 04:21:07;;;;;;;7.30;6.00;;;6.00;99.90;;;;;;5007627;28;20240;-87
2021/01/22 04:23:38;;;;;;;8.80;5.53;;;6.00;99.90;;;;;;5010755;28;20230;-87
2021/01/22 04:26:11;;;;;;;7.47;5.37;;;6.00;99.90;;;;;;5012046;28;20217;-88
2021/01/22 04:28:43;;;;;;;8.67;6.10;;;6.00;99.90;;;;;;5012899;28;20229;-88
2021/01/22 04:31:15;;;;;;;11.60;7.13;;;6.00;99.90;;;;;;4998836;28;20239;-89
2021/01/22 04:33:46;;;;;;;10.83;8.03;;;5.90;99.90;;;;;;5011735;23;20263;-88
2021/01/22 04:36:17;;;;;;;12.47;7.97;;;5.90;99.90;;;;;;4958647;29;20222;-88
2021/01/22 04:38:47;;;;;;;12.63;7.23;;;5.90;99.90;;;;;;4958514;29;20209;-89
2021/01/22 04:41:19;;;;;;;12.30;7.40;;;5.90;99.90;;;;;;4958233;29;20204;-88
2021/01/22 04:43:49;;;;;;;12.23;7.37;;;5.90;99.90;;;;;;4958497;29;20208;-88
2021/01/22 04:46:23;;;;;;;11.23;7.47;;;5.90;99.90;;;;;;4958127;29;20235;-89
2021/01/22 04:48:55;;;;;;;10.17;6.97;;;5.80;99.90;;;;;;4950310;29;20235;-86
2021/01/22 04:51:31;;;;;;;8.50;5.60;;;5.80;99.90;;;;;;4957806;29;20270;-89
2021/01/22 04:54:07;;;;;;;10.23;6.07;;;5.70;99.90;;;;;;4957905;29;20580;-87
2021/01/22 04:56:47;;;;;;;8.83;5.50;;;5.70;99.90;;;;;;4957651;29;20296;-88
2021/01/22 04:59:23;;;;;;;9.60;6.27;;;5.80;99.90;;;;;;4957998;29;20203;-88
2021/01/22 05:01:56;;;;;;;9.20;6.70;;;5.80;99.90;;;;;;4956214;29;20235;-89
2021/01/22 05:04:32;;;;;;;10.63;6.60;;;5.80;99.90;;;;;;4956543;29;20294;-89
2021/01/22 05:07:03;;;;;;;9.27;7.40;;;5.70;99.90;;;;;;4603278;29;10001376;-88
2021/01/22 05:09:35;;;;;;;9.07;5.70;;;5.70;99.90;;;;;;4961863;29;20235;-88
2021/01/22 05:12:08;;;;;;;7.03;4.90;;;5.60;99.90;;;;;;4966942;29;20200;-88
2021/01/22 05:14:39;;;;;;;7.30;4.90;;;5.60;99.90;;;;;;4961272;29;20206;-89
2021/01/22 05:17:12;;;;;;;8.17;5.03;;;5.60;99.90;;;;;;4969402;29;20215;-89
2021/01/22 05:19:45;;;;;;;7.30;4.90;;;5.50;99.90;;;;;;4961418;29;20219;-89
2021/01/22 05:22:18;;;;;;;6.73;4.70;;;5.60;99.90;;;;;;4964157;29;20262;-88
2021/01/22 05:25:02;;;;;;;5.90;4.67;;;5.60;99.90;;;;;;4963533;29;20214;-87
2021/01/22 05:27:49;;;;;;;7.03;4.57;;;5.50;99.90;;;;;;4952300;29;20692;-87
2021/01/22 05:30:22;;;;;;;6.97;4.63;;;5.50;99.90;;;;;;4949297;29;20217;-89
2021/01/22 05:32:54;;;;;;;9.27;5.50;;;5.40;99.90;;;;;;4950015;29;20593;-89
2021/01/22 05:35:31;;;;;;;6.13;5.10;;;5.40;99.90;;;;;;4938361;29;20224;-89
2021/01/22 05:38:03;;;;;;;7.93;5.57;;;5.30;99.90;;;;;;4938772;29;20242;-89
2021/01/22 05:40:33;;;;;;;9.73;6.33;;;5.30;99.90;;;;;;4941062;29;20204;-89
2021/01/22 05:43:04;;;;;;;8.93;6.13;;;5.20;99.90;;;;;;4940436;29;20207;-88
2021/01/22 05:45:42;;;;;;;7.50;5.27;;;5.20;99.90;;;;;;4962216;28;20389;-89
2021/01/22 05:48:26;;;;;;;7.03;5.27;;;5.20;99.90;;;;;;4956907;29;20283;-89
2021/01/22 05:50:58;;;;;;;7.87;5.43;;;5.20;99.90;;;;;;4928099;29;20244;-89
2021/01/22 05:53:30;;;;;;;4.90;4.30;;;5.20;99.90;;;;;;4944885;29;20220;-89
2021/01/22 05:56:11;;;;;;;6.80;5.03;;;5.20;99.90;;;;;;4947125;29;20216;-89
2021/01/22 05:58:44;;;;;;;11.33;4.83;;;5.20;99.90;;;;;;4967418;28;20298;-88
2021/01/22 06:01:15;;;;;;;9.13;5.80;;;5.20;99.90;;;;;;4971598;28;20218;-88
2021/01/22 06:03:48;;;;;;;9.00;5.67;;;5.20;99.90;;;;;;4963822;29;20207;-89
2021/01/22 06:06:19;;;;;;;7.57;5.10;;;5.20;99.90;;;;;;4954320;29;20208;-88
2021/01/22 06:08:51;;;;;;;8.30;5.60;;;5.20;99.90;;;;;;4972378;28;20307;-88
2021/01/22 06:11:25;;;;;;;7.07;5.17;;;5.20;99.90;;;;;;4975585;29;20262;-88
2021/01/22 06:13:59;;;;;;;8.20;5.33;;;5.20;99.90;;;;;;4977305;29;20199;-88
2021/01/22 06:16:31;;;;;;;8.00;5.47;;;5.20;99.90;;;;;;4970373;28;20206;-88
2021/01/22 06:19:06;;;;;;;10.60;5.93;;;5.20;99.90;;;;;;5034818;23;20305;-89
2021/01/22 06:21:39;;;;;;;12.83;6.13;;;5.20;99.90;;;;;;4989410;28;20277;-88
2021/01/22 06:24:13;;;;;;;10.53;5.83;;;5.20;99.90;;;;;;4978936;28;20203;-87
2021/01/22 06:26:44;;;;;;;7.67;5.40;;;5.20;99.90;;;;;;4978459;28;20298;-88
2021/01/22 06:29:15;;;;;;;8.53;5.53;;;5.20;99.90;;;;;;4993259;28;20234;-87
2021/01/22 06:31:47;;;;;;;9.60;5.47;;;5.20;99.90;;;;;;4993369;28;20211;-86
2021/01/22 06:34:40;;;;;;;11.73;5.47;;;5.20;99.90;;;;;;4986166;28;20234;-88
2021/01/22 06:37:12;;;;;;;11.77;5.60;;;5.20;99.90;;;;;;4990800;28;20321;-87
2021/01/22 06:39:45;;;;;;;8.97;5.77;;;5.20;99.90;;;;;;4989959;28;20218;-87
2021/01/22 06:42:17;;;;;;;8.20;5.77;;;5.20;99.90;;;;;;4991344;28;20234;-87
2021/01/22 06:44:48;;;;;;;6.63;5.43;;;5.20;99.90;;;;;;4985772;28;20206;-87
2021/01/22 06:47:19;;;;;;;11.47;5.83;;;5.20;99.90;;;;;;4991573;28;20337;-88
2021/01/22 06:49:51;;;;;;;10.87;5.80;;;5.20;99.90;;;;;;4972082;28;20270;-88
2021/01/22 06:52:22;;;;;;;7.90;5.83;;;5.20;99.90;;;;;;4980617;28;20266;-88
2021/01/22 06:55:11;;;;;;;8.97;5.10;;;5.20;99.90;;;;;;4992756;28;20210;-86
2021/01/22 06:57:42;;;;;;;8.73;4.83;;;5.30;99.90;;;;;;4985985;28;20199;-87
2021/01/22 07:00:37;;;;;;;7.07;4.90;;;5.30;99.90;;;;;;4989707;28;20214;-88
2021/01/22 07:03:08;;;;;;;6.80;4.50;;;5.20;99.90;;;;;;4987964;28;20204;-87
2021/01/22 07:05:42;;;;;;;5.00;4.07;;;5.30;99.90;;;;;;4988102;28;20294;-87
2021/01/22 07:08:13;;;;;;;5.03;3.80;;;5.30;99.90;;;;;;4984646;28;20234;-87
2021/01/22 07:11:06;;;;;;;4.67;3.33;;;5.40;99.90;;;;;;4985729;28;20243;-87
2021/01/22 07:13:39;;;;;;;6.37;3.50;;;5.40;99.90;;;;;;4981012;28;20207;-88
2021/01/22 07:16:12;;;;;;;8.93;3.50;;;5.40;99.90;;;;;;4963959;29;20211;-88
2021/01/22 07:18:51;;;;;;;7.93;3.27;;;5.40;99.90;;;;;;4977269;28;20237;-87
2021/01/22 07:21:31;;;;;;;5.20;3.00;;;5.40;99.90;;;;;;4982519;28;20207;-87
2021/01/22 07:24:02;;;;;;;4.23;2.83;;;5.40;99.90;;;;;;4982109;28;20206;-88
2021/01/22 07:26:37;;;;;;;3.90;2.60;;;5.40;99.90;;;;;;4991443;28;20217;-86
2021/01/22 07:29:25;;;;;;;5.23;2.67;;;5.50;99.90;;;;;;4983454;28;20314;-87
2021/01/22 07:32:00;;;;;;;4.90;2.37;;;5.60;99.90;;;;;;4983533;28;20266;-88
2021/01/22 07:34:49;;;;;;;4.57;2.30;;;5.60;99.90;;;;;;4984022;28;20203;-87
2021/01/22 07:37:22;;;;;;;5.63;2.30;;;5.60;99.90;;;;;;4986800;28;20215;-86
2021/01/22 07:39:55;;;;;;;5.70;2.50;;;5.60;99.90;;;;;;4982830;28;20282;-87
2021/01/22 07:42:28;;;;;;;7.87;2.30;;;5.60;99.90;;;;;;4988590;28;20203;-87
2021/01/22 07:45:08;;;;;;;7.07;2.40;;;5.50;99.90;;;;;;4989220;28;20265;-88
2021/01/22 07:47:41;;;;;;;3.77;1.93;;;5.60;99.90;;;;;;4981220;28;20265;-87
2021/01/22 07:50:13;;;;;;;4.97;2.30;;;5.50;99.90;;;;;;4986478;28;20238;-88
2021/01/22 07:52:45;;;;;;;6.03;2.63;;;5.60;99.90;;;;;;4985765;28;20208;-88
2021/01/22 07:55:17;;;;;;;3.73;2.00;;;5.50;99.90;;;;;;4970800;28;20207;-87
2021/01/22 07:58:02;;;;;;;4.10;2.60;;;5.50;99.90;;;;;;4989198;28;20248;-88
2021/01/22 08:00:39;;;;;;;7.53;3.23;;;5.50;99.90;;;;;;4986355;28;20203;-88
2021/01/22 08:03:11;;;;;;;7.67;2.57;;;5.50;99.90;;;;;;4984113;28;20636;-88
2021/01/22 08:05:43;;;;;;;4.53;2.90;;;5.50;99.90;;;;;;4985384;28;20207;-85
2021/01/22 08:08:23;;;;;;;3.53;2.30;;;5.50;99.90;;;;;;4987053;28;20211;-86
2021/01/22 08:10:55;;;;;;;5.77;2.13;;;5.40;99.90;;;;;;4982345;28;20226;-87
2021/01/22 08:13:26;;;;;;;3.07;2.30;;;5.40;99.90;;;;;;4983889;28;20290;-88
2021/01/22 08:16:06;;;;;;;2.93;1.63;;;5.40;99.90;;;;;;4983899;28;20207;-89
2021/01/22 08:18:38;;;;;;;3.93;2.27;;;5.40;99.90;;;;;;4987361;28;20314;-85
2021/01/22 08:21:10;;;;;;;3.40;1.87;;;5.40;99.90;;;;;;4987611;28;20211;-88
2021/01/22 08:23:46;;;;;;;4.20;2.00;;;5.50;99.90;;;;;;4986454;28;20258;-88
2021/01/22 08:26:18;;;;;;;4.23;2.20;;;5.50;99.90;;;;;;4996987;28;20203;-87
2021/01/22 08:28:53;;;;;;;6.67;2.33;;;5.40;99.90;;;;;;4992738;28;20239;-88
2021/01/22 08:31:24;;;;;;;6.57;2.30;;;5.40;99.90;;;;;;4997378;28;20214;-87
2021/01/22 08:33:55;;;;;;;4.20;1.97;;;5.40;99.90;;;;;;4997517;28;20194;-89
2021/01/22 08:36:26;;;;;;;5.07;2.10;;;5.30;99.90;;;;;;4997052;28;20254;-89
2021/01/22 08:39:00;;;;;;;3.27;1.80;;;5.30;99.90;;;;;;4995447;28;20218;-88
2021/01/22 08:41:31;;;;;;;4.90;2.10;;;5.40;99.90;;;;;;4996148;28;20222;-87
2021/01/22 08:44:01;;;;;;;5.73;1.80;;;5.30;99.90;;;;;;4996815;28;20210;-87
2021/01/22 08:46:31;;;;;;;3.87;1.80;;;5.30;99.90;;;;;;4991760;28;20280;-89
2021/01/22 08:49:13;;;;;;;4.40;1.90;;;5.30;99.90;;;;;;4976938;28;20200;-88
2021/01/22 08:51:45;;;;;;;3.37;1.77;;;5.20;99.90;;;;;;4977627;28;20243;-88
2021/01/22 08:54:19;;;;;;;3.17;1.70;;;5.20;99.90;;;;;;4976628;28;20204;-89
2021/01/22 08:57:08;;;;;;;2.27;1.57;;;5.20;99.90;;;;;;4975498;28;20199;-89
2021/01/22 08:59:49;;;;;;;3.77;1.67;;;5.20;99.90;;;;;;4976986;28;20239;-88
2021/01/22 09:02:39;;;;;;;2.13;1.37;;;5.20;99.90;;;;;;4975898;28;20211;-88
2021/01/22 09:05:13;;;;;;;4.43;1.93;;;5.20;99.90;;;;;;4986831;28;20228;-89
2021/01/22 09:07:44;;;;;;;2.57;1.50;;;5.20;99.90;;;;;;4994785;28;20207;-89
2021/01/22 09:10:45;;;;;;;3.33;1.80;;;5.20;99.90;;;;;;4983438;28;20346;-89
2021/01/22 09:13:17;;;;;;;4.07;1.67;;;5.20;99.90;;;;;;4971500;28;20279;-90
2021/01/22 09:15:49;;;;;;;4.67;1.87;;;5.10;99.90;;;;;;4987348;28;20240;-89
2021/01/22 09:18:21;;;;;;;5.10;1.60;;;5.20;99.90;;;;;;4975520;28;20227;-88
2021/01/22 09:21:03;;;;;;;3.43;1.70;;;5.20;99.90;;;;;;4974994;28;20215;-88
2021/01/22 09:23:34;;;;;;;4.80;1.97;;;5.10;99.90;;;;;;4995614;28;20205;-88
2021/01/22 09:26:06;;;;;;;5.93;1.80;;;5.10;99.90;;;;;;4991407;28;20218;-89
2021/01/22 09:28:37;;;;;;;5.60;1.67;;;5.20;99.90;;;;;;4984627;28;20214;-89
2021/01/22 09:31:08;;;;;;;4.17;1.60;;;5.20;99.90;;;;;;4975159;28;20200;-89
2021/01/22 09:33:42;;;;;;;2.30;1.50;;;5.20;99.90;;;;;;4977825;28;20211;-88
2021/01/22 09:36:19;;;;;;;2.97;1.50;;;5.20;99.90;;;;;;4987302;28;20206;-89
2021/01/22 09:38:50;;;;;;;2.00;1.63;;;5.20;99.90;;;;;;4980709;28;20643;-89
2021/01/22 09:41:22;;;;;;;4.80;1.60;;;5.20;99.90;;;;;;4979538;28;20211;-89
2021/01/22 09:43:53;;;;;;;2.80;1.30;;;5.20;99.90;;;;;;4983743;28;20211;-88
2021/01/22 09:46:26;;;;;;;1.53;1.23;;;5.10;99.90;;;;;;4982527;28;20211;-89
2021/01/22 09:48:57;;;;;;;2.00;1.53;;;5.10;99.90;;;;;;5091495;23;20268;-88
2021/01/22 09:51:33;;;;;;;4.73;1.63;;;5.10;99.90;;;;;;5013954;28;20202;-88
2021/01/22 09:54:06;;;;;;;4.13;1.47;;;5.10;99.90;;;;;;5003057;28;20198;-88
2021/01/22 09:56:40;;;;;;;3.53;1.50;;;5.10;99.90;;;;;;4979339;28;20207;-88
2021/01/22 09:59:11;;;;;;;3.40;1.57;;;5.00;99.90;;;;;;4979308;28;20215;-88
2021/01/22 10:01:41;;;;;;;2.60;1.47;;;5.00;99.90;;;;;;4977566;28;20234;-87
2021/01/22 10:04:12;;;;;;;2.90;1.57;;;5.00;99.90;;;;;;4989865;28;20195;-88
2021/01/22 10:06:43;;;;;;;2.53;1.93;;;5.00;99.90;;;;;;4988682;28;20221;-88
2021/01/22 10:09:14;;;;;;;2.17;1.17;;;5.00;99.90;;;;;;4997552;28;20240;-89
2021/01/22 10:11:46;;;;;;;2.40;1.50;;;5.00;99.90;;;;;;4996230;28;20298;-88
2021/01/22 10:14:18;;;;;;;3.57;1.70;;;5.00;99.90;;;;;;4997207;28;20213;-88
2021/01/22 10:16:48;;;;;;;4.90;1.70;;;5.00;99.90;;;;;;4996940;28;20559;-88
2021/01/22 10:19:19;;;;;;;3.47;1.20;;;5.00;99.90;;;;;;4997070;28;20674;-88
2021/01/22 10:21:49;;;;;;;3.57;1.50;;;5.00;99.90;;;;;;4996459;28;20214;-88
2021/01/22 10:24:20;;;;;;;2.50;1.60;;;5.00;99.90;;;;;;4973420;28;20215;-89
2021/01/22 10:26:52;;;;;;;2.87;1.40;;;5.00;99.90;;;;;;4996709;28;20241;-89
2021/01/22 10:29:23;;;;;;;2.47;1.30;;;4.90;99.90;;;;;;4997275;28;20237;-88
2021/01/22 10:31:54;;;;;;;2.10;1.30;;;4.90;99.90;;;;;;4998729;28;20218;-88
2021/01/22 10:34:25;;;;;;;8.67;1.37;;;4.90;99.90;;;;;;4981645;28;20199;-87
2021/01/22 10:36:55;;;;;;;2.87;1.50;;;4.90;99.90;;;;;;4982083;28;20214;-88
2021/01/22 10:39:30;;;;;;;2.20;1.20;;;4.90;99.90;;;;;;4990809;28;20253;-87
2021/01/22 10:42:02;;;;;;;3.17;1.50;;;4.90;99.90;;;;;;5007204;28;20270;-87
2021/01/22 10:44:33;;;;;;;1.67;1.53;;;4.90;99.90;;;;;;5018159;28;20194;-88
2021/01/22 10:47:05;;;;;;;3.20;1.43;;;4.90;99.90;;;;;;5012276;28;20198;-89
2021/01/22 10:49:41;;;;;;;2.60;1.53;;;4.90;99.90;;;;;;4997516;28;20218;-86
2021/01/22 10:52:12;;;;;;;3.90;1.60;;;5.00;99.90;;;;;;4983853;28;20214;-88
2021/01/22 10:54:42;;;;;;;3.90;1.80;;;5.00;99.90;;;;;;4983464;28;20210;-87
2021/01/22 10:57:14;;;;;;;3.33;1.70;;;5.00;99.90;;;;;;4999659;28;20298;-88
2021/01/22 10:59:45;;;;;;;3.10;1.70;;;5.00;99.90;;;;;;4991517;28;20210;-88
2021/01/22 11:02:15;;;;;;;3.50;1.60;;;4.90;99.90;;;;;;4979695;28;20648;-88
2021/01/22 11:04:46;;;;;;;3.67;1.57;;;4.90;99.90;;;;;;4980649;28;20297;-88
2021/01/22 11:07:23;;;;;;;3.87;1.77;;;4.90;99.90;;;;;;4994794;28;20241;-88
2021/01/22 11:09:53;;;;;;;1.93;1.50;;;4.90;99.90;;;;;;4999404;28;20280;-88
2021/01/22 11:12:26;;;;;;;3.77;1.50;;;4.90;99.90;;;;;;5000396;28;20202;-89
2021/01/22 11:14:59;;;;;;;2.87;1.80;;;4.90;99.90;;;;;;4983862;28;20206;-88
2021/01/22 11:17:31;;;;;;;7.13;2.00;;;4.90;99.90;;;;;;4989869;28;20206;-88
2021/01/22 11:20:03;;;;;;;4.43;2.07;;;4.90;99.90;;;;;;4978625;28;20207;-89
2021/01/22 11:22:35;;;;;;;3.93;2.20;;;4.90;99.90;;;;;;4979626;28;20238;-88
2021/01/22 11:25:06;;;;;;;3.23;1.87;;;4.90;99.90;;;;;;4979981;28;20628;-89
2021/01/22 11:27:39;;;;;;;5.37;2.47;;;4.90;99.90;;;;;;4999148;28;20214;-88
2021/01/22 11:30:11;;;;;;;4.00;2.27;;;4.90;99.90;;;;;;4982064;28;20230;-89
2021/01/22 11:32:41;;;;;;;2.70;1.97;;;4.80;99.90;;;;;;4999276;28;20245;-90
2021/01/22 11:35:13;;;;;;;6.77;2.43;;;4.80;99.90;;;;;;4989798;28;20297;-89
2021/01/22 11:37:47;;;;;;;4.87;2.40;;;4.90;99.90;;;;;;5003053;28;20206;-89
2021/01/22 11:40:18;;;;;;;3.43;2.30;;;4.80;99.90;;;;;;4999060;28;20222;-88
2021/01/22 11:42:51;;;;;;;4.23;2.57;;;4.80;99.90;;;;;;4995461;28;20222;-90
2021/01/22 11:45:21;;;;;;;5.53;3.10;;;4.80;99.90;;;;;;4962525;28;20211;-88
2021/01/22 11:47:52;;;;;;;4.17;2.70;;;4.80;99.90;;;;;;4979059;28;20230;-88
2021/01/22 11:50:22;;;;;;;3.10;2.63;;;4.80;99.90;;;;;;4978442;28;20258;-88
2021/01/22 11:52:53;;;;;;;4.00;3.03;;;4.80;99.90;;;;;;4988434;28;20245;-89
2021/01/22 11:55:40;;;;;;;3.80;2.50;;;4.80;99.90;;;;;;4999479;28;20261;-88
2021/01/22 11:58:12;;;;;;;4.77;2.90;;;4.80;99.90;;;;;;4962033;28;20211;-88
2021/01/22 12:00:44;;;;;;;6.50;3.13;;;4.80;99.90;;;;;;4962654;28;20241;-89
2021/01/22 12:03:15;;;;;;;4.33;2.70;;;4.80;99.90;;;;;;4979032;28;20237;-88
2021/01/22 12:05:46;;;;;;;3.63;2.60;;;4.80;99.90;;;;;;4962521;28;20207;-88
2021/01/22 12:08:25;;;;;;;3.57;2.73;;;4.80;99.90;;;;;;4979860;28;20543;-88
2021/01/22 12:10:57;;;;;;;3.93;2.77;;;4.80;99.90;;;;;;4990649;28;20694;-89
2021/01/22 12:13:28;;;;;;;4.20;2.97;;;4.80;99.90;;;;;;4998811;28;20202;-89
2021/01/22 12:15:59;;;;;;;5.93;2.80;;;4.80;99.90;;;;;;4998841;28;20226;-89
2021/01/22 12:18:30;;;;;;;5.10;3.03;;;4.80;99.90;;;;;;4996575;28;20273;-88
2021/01/22 12:21:01;;;;;;;5.87;3.27;;;4.80;99.90;;;;;;4992856;28;20214;-88
2021/01/22 12:23:32;;;;;;;5.80;2.60;;;4.80;99.90;;;;;;4997657;28;20212;-89
2021/01/22 12:26:09;;;;;;;6.97;2.90;;;4.80;99.90;;;;;;4999894;28;20211;-88
2021/01/22 12:28:44;;;;;;;3.83;2.40;;;4.80;99.90;;;;;;4997994;28;20218;-87
2021/01/22 12:31:15;;;;;;;5.20;3.07;;;4.70;99.90;;;;;;4996658;28;20268;-87
2021/01/22 12:33:47;;;;;;;5.33;3.00;;;4.70;99.90;;;;;;4981288;28;20214;-88
2021/01/22 12:36:18;;;;;;;5.27;3.00;;;4.70;99.90;;;;;;4997647;28;20211;-88
2021/01/22 12:38:49;;;;;;;4.27;2.77;;;4.70;99.90;;;;;;4981164;28;20241;-88
2021/01/22 12:41:20;;;;;;;4.17;2.60;;;4.70;99.90;;;;;;4997504;28;20237;-89
2021/01/22 12:43:52;;;;;;;5.37;2.77;;;4.70;99.90;;;;;;4999040;28;20206;-88
2021/01/22 12:46:22;;;;;;;3.33;2.67;;;4.60;99.90;;;;;;4998963;28;20245;-88
2021/01/22 12:48:54;;;;;;;4.83;2.70;;;4.60;99.90;;;;;;4998310;28;20218;-89
2021/01/22 12:51:25;;;;;;;3.80;2.80;;;4.60;99.90;;;;;;5011096;28;20282;-89
2021/01/22 12:53:55;;;;;;;3.83;2.83;;;4.60;99.90;;;;;;5012940;28;20691;-89
2021/01/22 12:56:26;;;;;;;5.93;3.23;;;4.60;99.90;;;;;;4995040;28;20207;-88
2021/01/22 12:59:01;;;;;;;4.43;3.07;;;4.50;99.90;;;;;;4995892;28;20238;-89
2021/01/22 13:01:31;;;;;;;4.70;2.90;;;4.50;99.90;;;;;;4979900;28;20274;-88
2021/01/22 13:04:02;;;;;;;6.30;2.93;;;4.60;99.90;;;;;;4979724;28;20233;-88
2021/01/22 13:06:33;;;;;;;8.00;3.10;;;4.50;99.90;;;;;;4979322;28;20203;-88
2021/01/22 13:09:04;;;;;;;5.77;3.50;;;4.60;99.90;;;;;;4979211;28;20207;-88
2021/01/22 13:11:36;;;;;;;3.47;2.73;;;4.60;99.90;;;;;;4977622;28;20206;-89
2021/01/22 13:14:08;;;;;;;3.53;2.13;;;4.50;99.90;;;;;;4978108;28;20211;-87
2021/01/22 13:16:39;;;;;;;5.60;2.53;;;4.50;99.90;;;;;;4981624;28;20195;-88
2021/01/22 13:19:10;;;;;;;3.97;2.50;;;4.50;99.90;;;;;;4961401;28;20250;-89
2021/01/22 13:21:41;;;;;;;5.50;2.47;;;4.50;99.90;;;;;;4990584;28;20230;-88
2021/01/22 13:24:12;;;;;;;6.77;3.17;;;4.50;99.90;;;;;;4997729;28;20439;-87
2021/01/22 13:26:43;;;;;;;2.70;2.17;;;4.50;99.90;;;;;;4997225;28;20222;-88
2021/01/22 13:29:15;;;;;;;3.20;2.03;;;4.50;99.90;;;;;;4990307;28;20357;-87